Latest Weather Observations for Lameroo AWS

IDS60801

Issued at 12:31 pm CST Monday 24 April 2017 (issued every 30 minutes, with the page automatically refreshed every 10 minutes)

About weather observations | Map of weather stations | Latest weather observations for SA | Other Formats
Station Details ID: 025562 Name: AUSTIN PLAINS Lat: -35.38 Lon: 140.54 Height: 110.08 m
Data from the previous 72 hours. | See also: Recent months at Lameroo AWS
Date/Time
CST
Temp
°C
App
Temp
°C
Dew
Point
°C
Rel
Hum
%
Delta-T
°C
Wind Press
QNH
hPa
Press
MSL
hPa
Rain since
9am
mm
Dir  Spd
km/h
Gust
km/h
Spd
kts
Gust
kts
24/12:30pm 23.6 21.3 14.6 57 5.4 NNW 20 30 11 16 1014.6 1014.4 0.0
24/12:00pm 23.0 21.5 15.3 62 4.6 N 17 28 9 15 1015.4 1015.2 0.0
24/11:30am 21.9 20.3 15.0 65 4.1 N 17 22 9 12 1016.1 1015.9 0.0
24/11:00am 21.1 20.2 15.9 72 3.1 NNE 15 20 8 11 1016.6 1016.4 0.0
24/10:30am 20.1 19.4 15.3 74 2.8 NNE 13 17 7 9 1017.1 1016.9 0.0
24/10:00am 19.4 19.0 15.1 76 2.5 NNE 11 15 6 8 1017.5 1017.3 0.0
24/09:30am 18.6 17.6 14.7 78 2.3 NE 13 17 7 9 1017.9 1017.8 0.0
24/09:00am 17.6 16.7 14.9 84 1.6 ENE 13 17 7 9 1017.8 1017.7 0.8
24/08:30am 16.6 15.5 14.4 87 1.3 E 13 17 7 9 1017.8 1017.7 0.8
24/08:00am 15.6 14.3 13.8 89 1.0 ESE 13 17 7 9 1017.9 1017.8 0.8
24/07:30am 15.1 14.1 13.5 90 0.9 SE 11 13 6 7 1017.9 1017.8 0.8
24/07:00am 15.2 14.2 13.4 89 1.0 SE 11 13 6 7 1018.3 1018.2 0.8
24/06:30am 15.2 14.1 13.2 88 1.1 SSE 11 15 6 8 1018.5 1018.4 0.8
24/06:00am 15.0 13.7 12.5 85 1.4 SSW 11 17 6 9 1018.6 1018.5 0.2
24/05:30am 15.2 13.5 12.3 83 1.6 ENE 13 15 7 8 1018.4 1018.3 0.0
24/05:00am 14.9 13.1 12.0 83 1.6 ENE 13 15 7 8 1018.4 1018.3 0.0
24/04:30am 14.8 12.5 11.6 81 1.7 E 15 19 8 10 1018.4 1018.3 0.0
24/04:00am 14.9 12.1 11.5 80 1.8 E 17 20 9 11 1018.4 1018.3 0.0
24/03:30am 14.8 12.4 11.4 80 1.8 E 15 17 8 9 1018.4 1018.3 0.0
24/03:00am 14.8 11.9 11.0 78 2.0 ESE 17 20 9 11 1018.7 1018.6 0.0
24/02:30am 15.0 12.1 11.0 77 2.1 ESE 17 19 9 10 1018.9 1018.8 0.0
24/02:00am 15.4 13.3 11.2 76 2.3 ESE 13 15 7 8 1019.5 1019.4 0.0
24/01:30am 15.7 13.6 11.1 74 2.5 ESE 13 17 7 9 1019.9 1019.8 0.0
24/01:00am 15.7 13.2 11.1 74 2.5 E 15 15 8 8 1020.1 1020.0 0.0
24/12:30am 15.6 13.1 11.0 74 2.5 ESE 15 17 8 9 1020.2 1020.1 0.0
24/12:00am 15.3 12.8 11.1 76 2.2 ESE 15 17 8 9 1020.2 1020.1 0.0
 
Date/Time
CST
Temp
°C
App
Temp
°C
Dew
Point
°C
Rel
Hum
%
Delta-T
°C
Wind Press
QNH
hPa
Press
MSL
hPa
Rain since
9am
mm
Dir  Spd
km/h
Gust
km/h
Spd
kts
Gust
kts
23/11:30pm 15.0 12.9 11.2 78 2.0 SE 13 15 7 8 1020.7 1020.6 0.0
23/11:00pm 15.3 13.2 11.3 77 2.2 SE 13 15 7 8 1020.9 1020.8 0.0
23/10:30pm 14.3 12.2 11.1 81 1.7 SE 13 13 7 7 1021.0 1020.9 0.0
23/10:00pm 15.3 13.2 11.1 76 2.3 SE 13 15 7 8 1021.2 1021.1 0.0
23/09:30pm 15.6 13.6 11.4 76 2.3 SE 13 13 7 7 1021.4 1021.3 0.0
23/09:00pm 16.6 14.2 11.3 71 2.9 ESE 15 15 8 8 1021.3 1021.2 0.0
23/08:30pm 17.5 15.4 11.3 67 3.4 ESE 13 13 7 7 1021.3 1021.2 0.0
23/08:00pm 18.5 16.4 11.1 62 4.0 SE 13 17 7 9 1021.3 1021.2 0.0
23/07:30pm 19.4 16.6 11.2 59 4.5 ESE 17 20 9 11 1021.2 1021.1 0.0
23/07:00pm 19.5 16.7 11.5 60 4.4 SE 17 19 9 10 1021.3 1021.2 0.0
23/06:30pm 19.8 17.9 11.8 60 4.4 SSE 13 13 7 7 1021.2 1021.1 0.0
23/06:00pm 20.1 18.7 12.3 61 4.4 SE 11 13 6 7 1020.9 1020.8 0.0
23/05:30pm 20.9 19.5 12.1 57 4.9 SE 11 13 6 7 1020.7 1020.6 0.0
23/05:00pm 21.8 19.6 10.9 50 6.0 SSE 13 15 7 8 1020.7 1020.6 0.0
23/04:30pm 23.1 21.9 9.5 42 7.4 SSE 6 13 3 7 1020.7 1020.6 0.0
23/04:00pm 23.4 22.0 9.0 40 7.8 ESE 6 15 3 8 1020.7 1020.6 0.0
23/03:30pm 23.2 21.5 9.9 43 7.3 ESE 9 15 5 8 1020.7 1020.6 0.0
23/03:00pm 23.4 21.8 10.1 43 7.3 SSE 9 13 5 7 1020.7 1020.6 0.0
23/02:30pm 23.8 22.5 10.1 42 7.5 SSE 7 15 4 8 1020.7 1020.6 0.0
23/02:00pm 23.3 21.8 10.4 44 7.1 SE 9 15 5 8 1020.8 1020.7 0.0
23/01:30pm 23.1 21.6 10.5 45 7.0 S 9 17 5 9 1021.2 1021.1 0.0
23/01:00pm 22.5 21.3 10.3 46 6.7 SE 7 13 4 7 1021.6 1021.5 0.0
23/12:30pm 22.1 21.0 10.6 48 6.3 SE 7 13 4 7 1022.1 1022.0 0.0
23/12:00pm 22.0 21.4 12.3 54 5.5 ESE 7 13 4 7 1022.5 1022.4 0.0
23/11:30am 20.9 20.4 12.8 60 4.6 E 7 11 4 6 1022.9 1022.8 0.0
23/11:00am 20.4 19.6 12.9 62 4.3 E 9 11 5 6 1023.4 1023.2 0.0
23/10:30am 19.7 19.4 13.2 66 3.7 E 7 9 4 5 1023.7 1023.5 0.0
23/10:00am 18.8 18.0 13.0 69 3.3 E 9 11 5 6 1023.7 1023.5 0.0
23/09:30am 17.8 17.0 12.9 73 2.7 E 9 13 5 7 1023.8 1023.6 0.0
23/09:00am 16.7 15.5 12.7 77 2.2 E 11 13 6 7 1023.9 1023.7 0.0
23/08:30am 15.4 14.5 12.7 84 1.5 E 9 13 5 7 1023.8 1023.6 0.0
23/08:00am 14.0 12.6 12.2 89 1.0 ESE 11 13 6 7 1023.7 1023.5 0.0
23/07:30am 12.7 - - - - ESE 13 15 7 8 1023.3 1023.1 0.0
23/07:00am 11.9 - - - - ESE 11 13 6 7 1023.1 1023.0 0.0
23/06:30am 11.5 - - - - SE 11 13 6 7 1023.0 1022.9 0.0
23/06:00am 11.5 - - - - SE 13 15 7 8 1022.8 1022.7 0.0
23/05:30am 11.6 - - - - SE 9 11 5 6 1022.7 1022.6 0.0
23/05:00am 11.9 - - - - SE 9 11 5 6 1022.4 1022.3 0.0
23/04:30am 12.1 - - - - SE 7 9 4 5 1022.4 1022.3 0.0
23/04:00am 12.5 - - - - SSE 9 13 5 7 1022.3 1022.2 0.0
23/03:30am 12.3 - - - - SE 11 13 6 7 1022.2 1022.1 0.0
23/03:00am 12.1 - - - - SSE 9 11 5 6 1022.2 1022.1 0.0
23/02:30am 12.1 - - - - SE 11 13 6 7 1022.4 1022.3 0.0
23/02:00am 12.5 - - - - SE 11 13 6 7 1022.5 1022.4 0.0
23/01:30am 12.6 - - - - SSE 13 15 7 8 1022.8 1022.7 0.0
23/01:00am 12.7 - - - - SSE 11 13 6 7 1022.9 1022.8 0.0
23/12:30am 13.0 - - - - SSE 13 15 7 8 1023.1 1023.0 0.0
23/12:00am 13.0 11.4 12.7 98 0.2 SSE 13 13 7 7 1023.4 1023.2 0.0
 
Date/Time
CST
Temp
°C
App
Temp
°C
Dew
Point
°C
Rel
Hum
%
Delta-T
°C
Wind Press
QNH
hPa
Press
MSL
hPa
Rain since
9am
mm
Dir  Spd
km/h
Gust
km/h
Spd
kts
Gust
kts
22/11:30pm 13.1 11.3 12.2 94 0.5 SSE 13 15 7 8 1023.4 1023.2 0.0
22/11:00pm 13.1 11.1 11.5 90 0.9 SSE 13 13 7 7 1023.5 1023.3 0.0
22/10:30pm 13.1 10.5 10.8 86 1.2 SSE 15 15 8 8 1023.5 1023.3 0.0
22/10:00pm 13.5 11.4 11.2 86 1.2 SSE 13 15 7 8 1023.5 1023.3 0.0
22/09:30pm 14.2 11.7 11.2 82 1.6 SSE 15 17 8 9 1023.5 1023.3 0.0
22/09:00pm 14.6 11.9 11.6 82 1.6 SSE 17 17 9 9 1023.3 1023.1 0.0
22/08:30pm 15.1 12.9 12.1 82 1.6 SE 15 15 8 8 1023.3 1023.1 0.0
22/08:00pm 15.2 13.4 12.2 82 1.6 SSE 13 15 7 8 1022.9 1022.8 0.0
22/07:30pm 15.4 14.0 12.2 81 1.7 SSE 11 13 6 7 1022.8 1022.7 0.0
22/07:00pm 16.6 14.4 12.0 74 2.5 SSE 15 15 8 8 1022.6 1022.5 0.0
22/06:30pm 16.9 15.1 12.0 73 2.7 S 13 15 7 8 1022.4 1022.3 0.0
22/06:00pm 17.5 15.9 12.8 74 2.6 S 13 17 7 9 1022.1 1022.0 0.0
22/05:30pm 19.4 17.1 11.9 62 4.2 S 15 17 8 9 1021.9 1021.8 0.0
22/05:00pm 21.1 18.5 10.6 51 5.8 SW 15 19 8 10 1021.7 1021.6 0.0
22/04:30pm 22.1 20.3 10.9 49 6.2 SW 11 15 6 8 1021.6 1021.5 0.0
22/04:00pm 22.0 19.9 11.1 50 6.1 SW 13 20 7 11 1021.6 1021.5 0.0
22/03:30pm 22.4 20.3 11.2 49 6.2 SSW 13 19 7 10 1021.4 1021.3 0.0
22/03:00pm 22.6 21.8 11.0 48 6.4 SSW 6 11 3 6 1021.5 1021.4 0.0
22/02:30pm 22.0 21.1 10.8 49 6.2 SSW 6 15 3 8 1021.6 1021.5 0.0
22/02:00pm 22.1 21.2 11.2 50 6.1 S 7 11 4 6 1021.8 1021.7 0.0
22/01:30pm 21.3 21.0 11.3 53 5.5 SE 4 4 2 2 1022.0 1021.9 0.0
22/01:00pm 21.9 21.9 11.3 51 5.9 ESE 2 9 1 5 1022.3 1022.2 0.0
22/12:30pm 21.3 20.8 12.2 56 5.1 N 6 9 3 5 1022.7 1022.6 0.0
22/12:00pm 20.4 20.2 12.9 62 4.3 SE 6 9 3 5 1023.1 1023.0 0.0
22/11:30am 19.3 19.6 13.5 69 3.3 NNW 4 7 2 4 1023.7 1023.5 0.0
22/11:00am 17.6 17.5 13.3 76 2.4 SE 6 7 3 4 1023.9 1023.7 0.0
22/10:30am 16.2 16.7 14.0 87 1.2 SSE 4 7 2 4 1024.2 1024.0 0.0
22/10:00am 15.2 - - - - W 2 6 1 3 1024.5 1024.3 0.0
22/09:30am 14.4 - - - - SSE 7 9 4 5 1024.4 1024.2 0.0
22/09:00am 13.8 - - - - S 7 9 4 5 1024.3 1024.1 -
22/08:30am 13.2 - - - - S 7 13 4 7 1024.2 1024.0 -
22/08:00am 12.8 - - - - SSE 9 11 5 6 1023.9 1023.7 -
22/07:30am 12.7 - - - - S 17 20 9 11 1023.7 1023.5 -
22/07:00am 12.7 - - - - S 7 11 4 6 1023.4 1023.2 -
22/06:30am 12.5 - - - - SSW 7 9 4 5 1022.9 1022.8 -
22/06:00am 12.6 - - - - SSW 9 9 5 5 1022.7 1022.6 -
22/05:30am 13.1 - - - - SSE 4 6 2 3 1022.5 1022.4 -
22/05:00am 13.5 - - - - S 6 7 3 4 1022.4 1022.3 -
22/04:30am 13.6 - - - - SE 6 9 3 5 1022.2 1022.1 -
22/04:00am 13.4 - - - - S 15 17 8 9 1021.6 1021.5 -
22/03:30am 13.5 - - - - SSW 7 9 4 5 1021.9 1021.8 -
22/03:00am 14.0 - - - - SW 11 13 6 7 1022.0 1021.9 0.0
22/02:30am 14.1 - - - - SSW 6 7 3 4 1022.1 1022.0 -
22/02:00am 14.2 - - - - SSE 6 9 3 5 1022.1 1022.0 -
22/01:30am 14.5 - - - - E 4 4 2 2 1022.4 1022.3 -
22/01:00am 14.4 - - - - ENE 6 7 3 4 1022.6 1022.5 -
22/12:30am 14.1 14.1 13.6 97 0.3 E 6 7 3 4 1022.4 1022.3 -
22/12:00am 14.5 15.1 14.3 99 0.1 ENE 4 6 2 3 1022.6 1022.5 -
 
Date/Time
CST
Temp
°C
App
Temp
°C
Dew
Point
°C
Rel
Hum
%
Delta-T
°C
Wind Press
QNH
hPa
Press
MSL
hPa
Rain since
9am
mm
Dir  Spd
km/h
Gust
km/h
Spd
kts
Gust
kts
21/11:30pm 14.4 15.5 13.4 94 0.6 CALM 0 4 0 2 1022.5 1022.4 -
21/11:00pm 14.8 15.0 14.8 100 0.0 SSE 7 9 4 5 1022.5 1022.4 -
21/10:30pm 14.0 - - - - SSW 13 15 7 8 1022.4 1022.3 -
21/10:00pm 13.7 12.0 12.6 93 0.6 SSW 13 13 7 7 1022.5 1022.4 -
21/09:30pm 13.9 12.2 12.3 90 0.9 SSW 13 15 7 8 1022.4 1022.3 -
21/09:00pm 14.3 12.9 12.3 88 1.1 SSW 11 13 6 7 1022.1 1022.0 0.0
21/08:30pm 14.2 13.2 12.2 88 1.1 SSW 9 9 5 5 1021.9 1021.8 -
21/08:00pm 14.9 13.3 12.9 88 1.1 SSW 13 15 7 8 1021.8 1021.7 -
21/07:30pm 15.5 14.4 13.2 86 1.3 SSW 11 13 6 7 1021.8 1021.7 -
21/07:00pm 15.8 14.5 13.6 87 1.2 SSW 13 13 7 7 1021.3 1021.2 -
21/06:30pm 16.1 15.2 13.6 85 1.4 SSW 11 13 6 7 1021.1 1021.0 -
21/06:00pm 17.2 16.3 13.7 80 2.0 SSW 11 13 6 7 1020.7 1020.6 -
21/05:30pm 18.8 17.6 14.1 74 2.7 SSW 13 15 7 8 1020.3 1020.2 -
21/05:00pm 20.3 19.1 14.0 67 3.7 SSW 13 15 7 8 1020.1 1020.0 -
21/04:30pm 20.7 19.7 14.6 68 3.6 SSW 13 17 7 9 1019.9 1019.8 -
21/04:00pm 21.0 19.7 14.9 68 3.6 SSW 15 19 8 10 1019.9 1019.8 -
21/03:30pm 21.2 20.0 15.1 68 3.6 SSW 15 20 8 11 1020.0 1019.9 -
21/03:00pm 20.6 19.1 15.2 71 3.2 SW 17 22 9 12 1020.1 1020.0 -
21/01:30pm 20.9 19.1 15.4 71 3.3 WSW 19 24 10 13 1020.1 1020.0 0.0
21/01:00pm 20.7 18.7 15.5 72 3.1 WSW 20 24 11 13 1020.2 1020.1 0.0

Other Formats:

Comma delimited format used in spreadsheet applications
http://www.bom.gov.au/fwo/IDS60801/IDS60801.94690.axf

JavaScript Object Notation format (JSON) in row-major order
http://www.bom.gov.au/fwo/IDS60801/IDS60801.94690.json